Faa'a International Airport

NTAA · Îles du Vent, Frans-Polynesië

METAR historie NTAA · Faa'a International Airport

Hieronder zie je METAR's van de afgelopen dagen. Kies een jaar om door oudere METAR's te bladeren, vanaf het jaar 2007.

23 juni 2024

Tijd Code Weer Temp. Zicht Plafond Wind METAR/SPECI
13:30
V
28 °C 10 km+ - 190° 190° 17 kt METAR NTAA 232330Z 19017KT 9999 FEW023 28/20 Q1012 NOSIG
13:00
V
28 °C 10 km+ - 200° 200° 19 kt METAR NTAA 232300Z 20019KT 9999 FEW023 SCT053 28/20 Q1013 NOSIG
12:30
V
28 °C 10 km+ - 190° 190° 18 kt METAR NTAA 232230Z 19018KT 9999 FEW023 SCT180 28/21 Q1013 NOSIG
12:00
V
27 °C 10 km+ 18.000 ft 200° 200° 17 kt METAR NTAA 232200Z 20017KT 9999 FEW023 BKN180 27/20 Q1013 NOSIG
11:30
V
27 °C 10 km+ 18.000 ft 190° 190° 16 kt METAR NTAA 232130Z 19016KT 9999 FEW023 SCT053 BKN180 27/21 Q1014 NOSIG
11:00
V
28 °C 10 km+ 18.000 ft 190° 190° 15 kt METAR NTAA 232100Z 19015KT 9999 FEW023 SCT050 BKN180 28/21 Q1014 NOSIG
10:30
V
27 °C 10 km+ 13.000 ft 180° 180° 14 kt METAR NTAA 232030Z 18014KT 9999 FEW023 SCT050 BKN130 27/20 Q1014 NOSIG
10:00
V
27 °C 10 km+ 13.000 ft 190° 190° 14 kt METAR NTAA 232000Z 19014KT 9999 FEW023 BKN130 27/21 Q1014 NOSIG
09:30
V
27 °C 10 km+ 18.000 ft 190° 190° 14 kt METAR NTAA 231930Z 19014KT 9999 FEW023 BKN180 27/21 Q1014 NOSIG
09:00
V
27 °C 10 km+ 18.000 ft 190° 190° 14 kt METAR NTAA 231900Z 19014KT 9999 FEW023 BKN180 27/22 Q1014 NOSIG
08:30
V
26 °C 10 km+ 18.000 ft 190° 190° 11 kt METAR NTAA 231830Z 19011KT 9999 FEW023 BKN180 26/22 Q1013 NOSIG
08:00
V
26 °C 10 km+ 17.000 ft 190° 190° 12 kt METAR NTAA 231800Z 19012KT 9999 FEW023 BKN170 26/22 Q1013 NOSIG
07:30
V
25 °C 10 km+ - 190° 190° 9 kt METAR NTAA 231730Z 19009KT 9999 FEW023 SCT170 25/21 Q1012 NOSIG
07:00
V
25 °C 10 km+ - 180° 180° 10 kt METAR NTAA 231700Z 18010KT 9999 FEW023 SCT050 25/21 Q1012 NOSIG
06:30
V
25 °C 10 km+ - 180° 180° 9 kt METAR NTAA 231630Z 18009KT 9999 FEW023 25/21 Q1012 NOSIG
06:00
V
24 °C 10 km+ - 180° 180° 6 kt METAR NTAA 231600Z 18006KT 9999 FEW023 SCT050 24/22 Q1012 NOSIG
05:30
V
24 °C 10 km+ - 170° 170° 9 kt METAR NTAA 231530Z 17009KT 9999 FEW023 SCT050 24/21 Q1012 NOSIG
05:00
V
24 °C 10 km+ 4.600 ft 170° 170° 11 kt METAR NTAA 231500Z 17011KT 9999 VCSH FEW023 BKN046 BKN053 24/22 Q1012 TEMPO 04015G25KT 1500 +RA SCT006 SCT016TCU BKN030
04:30
M
24 °C 10 km+ 2.200 ft 200° 200° 15 kt METAR NTAA 231430Z 20015KT 9999 VCSH FEW015 BKN022 BKN043 24/22 Q1012 TEMPO 04015G25KT 1500 +RA SCT006 SCT016TCU BKN030
04:00
M
24 °C 10 km+ 2.200 ft 200° 200° 9 kt METAR NTAA 231400Z 20009KT 9999 FEW015 BKN022 BKN043 24/23 Q1011 TEMPO 04015G25KT 1500 +RA SCT006 SCT016TCU BKN030
03:00
V
24 °C 10 km+ 13.000 ft 170° 170° 3 kt METAR NTAA 231300Z 17003KT 9999 FEW023 BKN130 24/23 Q1011 TEMPO 04015G25KT 1500 +RA SCT006 SCT016TCU BKN030
02:30
V
25 °C 10 km+ 4.000 ft 230° 230° 5 kt METAR NTAA 231230Z 23005KT 9999 FEW023 BKN040 BKN130 25/23 Q1011 TEMPO 04015G25KT 1500 +RA SCT006 SCT016TCU BKN030
02:00
V
24 °C 10 km+ 4.000 ft 250° 250° 4 kt METAR NTAA 231200Z 25004KT 200V280 9999 FEW023 BKN040 BKN130 24/23 Q1011 TEMPO 04015G25KT 1500 +RA SCT006 SCT016TCU BKN030
01:30
V
25 °C 10 km+ 12.000 ft 180° 180° 5 kt METAR NTAA 231130Z 18005KT 9999 FEW023 BKN120 25/23 Q1011 TEMPO 04015G25KT 1500 +RA SCT006 SCT016TCU BKN030
01:00
V
25 °C 10 km+ 12.000 ft 290° 290° 3 kt METAR NTAA 231100Z 29003KT 9999 FEW023 BKN120 25/23 Q1012 TEMPO 04015G25KT 1500 +RA SCT006 SCT016TCU BKN030
00:30
V
25 °C 10 km+ 12.000 ft 280° 280° 6 kt METAR NTAA 231030Z AUTO 28006KT 9999 FEW028 OVC120 25/23 Q1012 TEMPO 04015G25KT 3000 SHRA SCT007 SCT016TCU BKN035
00:00
V
25 °C 10 km+ - 280° 280° 6 kt METAR NTAA 231000Z AUTO 28006KT CAVOK 25/23 Q1012 TEMPO 04015G25KT 3000 SHRA SCT007 SCT016TCU BKN035

22 juni 2024

Tijd Code Weer Temp. Zicht Plafond Wind METAR/SPECI
23:30
V
25 °C 10 km+ 12.000 ft 260° 260° 5 kt METAR NTAA 230930Z AUTO 26005KT 9999 FEW022 BKN120 OVC140 25/23 Q1012 TEMPO 04015G25KT 3000 SHRA SCT007 SCT016TCU BKN035
23:00
M
24 °C 10 km+ 2.000 ft 260° 260° 4 kt METAR NTAA 230900Z AUTO 26004KT 230V300 9999 BKN020 BKN026 BKN050 24/23 Q1012 TEMPO 04015G25KT 3000 SHRA SCT007 SCT016TCU BKN035
22:30
M
24 °C 10 km+ 2.100 ft 200° 200° 3 kt METAR NTAA 230830Z AUTO 20003KT 170V240 9999 BKN021 BKN026 BKN040 24/23 Q1012 TEMPO 04015G25KT 3000 SHRA SCT007 SCT016TCU BKN035
22:00
V
24 °C 10 km+ 5.000 ft Var Var 2 kt METAR NTAA 230800Z VRB02KT 9999 FEW006 SCT021 BKN050 24/23 Q1012 TEMPO 04015G25KT 1500 +RA SCT006 SCT016TCU BKN030
21:30
M
24 °C 10 km+ 2.400 ft Var Var 2 kt METAR NTAA 230730Z VRB02KT 9999 -RA FEW006 BKN024 BKN050 24/23 Q1012 TEMPO 04015G25KT 1500 +RA SCT006 SCT016TCU BKN030
21:00
M
24 °C 6 km 3.600 ft Var Var 2 kt METAR NTAA 230700Z VRB02KT 6000 -RA FEW017 SCT028 BKN036 24/22 Q1012 TEMPO 04015G25KT 1500 +RA SCT006 SCT016TCU BKN030
20:30
I
24 °C 4,5 km 5.000 ft 350° 350° 7 kt METAR NTAA 230630Z 35007KT 4500 -RA FEW020 SCT023 BKN050 24/22 Q1012 TEMPO 04015G25KT 1500 +RA SCT006 SCT016TCU BKN030
20:00
V
25 °C 10 km+ 5.300 ft Var Var 2 kt METAR NTAA 230600Z VRB02KT 9999 -RA FEW023 OVC053 25/22 Q1011 TEMPO 04015G25KT 1500 +RA SCT006 SCT016TCU BKN030
19:30
V
25 °C 10 km+ 7.300 ft 180° 180° 7 kt METAR NTAA 230530Z 18007KT 140V230 9999 FEW023 BKN073 25/22 Q1011 TEMPO 04015G25KT 1500 +RA SCT006 SCT016TCU BKN030
19:00
V
23 °C 10 km+ 5.000 ft 160° 160° 9 kt METAR NTAA 230500Z 16009KT 140V200 9999 -RA FEW021 SCT023 BKN050 23/22 Q1011 TEMPO 04015G25KT 1500 +RA SCT006 SCT016TCU BKN030
18:30
I
23 °C 3 km 2.300 ft 210° 210° 12 kt METAR NTAA 230430Z 21012KT 3000 RA FEW006 SCT018 BKN023 23/22 Q1012 TEMPO 04015G25KT 1500 +RA SCT006 SCT016TCU BKN030
18:00
I
24 °C 3 km 2.100 ft 270° 270° 8 kt METAR NTAA 230400Z 27008KT 3000 +RA FEW008 FEW016TCU BKN021 BKN050 24/23 Q1011 TEMPO 04015G25KT 1500 +RA SCT006 SCT016TCU BKN030
17:30
I
24 °C 3,7 km 2.000 ft 280° 280° 3 kt METAR NTAA 230330Z AUTO 28003KT 240V340 3700 RA BR SCT009/// BKN020/// BKN031/// ///TCU 24/23 Q1011 TEMPO 33020G30KT 0800 TSRA SCT008 SCT015CB OVC035
17:00
I
25 °C 3,2 km 1.100 ft 200° 200° 6 kt METAR NTAA 230300Z AUTO 20006KT 160V220 3200 -RA BR SCT007 BKN011 BKN019 25/24 Q1010 TEMPO 33020G30KT 0800 TSRA SCT008 SCT015CB OVC035
16:30
M
25 °C 6 km 2.000 ft 260° 260° 12 kt METAR NTAA 230230Z AUTO 26012KT 6000 -RA FEW009/// BKN020/// BKN025/// ///TCU 25/23 Q1010 TEMPO 33020G30KT 0800 TSRA SCT008 SCT015CB OVC035
16:00
V
26 °C 10 km+ 3.500 ft 280° 280° 7 kt METAR NTAA 230200Z AUTO 28007KT 9999 FEW011 SCT024 BKN035 26/24 Q1009 TEMPO 04015G25KT 3000 SHRA SCT016TCU BKN040
15:30
M
26 °C 9 km 1.200 ft 300° 300° 9 kt METAR NTAA 230130Z AUTO 30009KT 9000 -RA SCT008 BKN012 BKN017 26/24 Q1010 TEMPO 04015G25KT 3000 SHRA SCT016TCU BKN040
15:00
L
26 °C 1,2 km 1.400 ft 340° 340° 10 kt METAR NTAA 230100Z AUTO 34010KT 2000 1200 R04/1800D +RA BR FEW007 BKN014 BKN023 26/25 Q1010 TEMPO 04015G25KT 3000 SHRA SCT016TCU BKN040
14:30
L
27 °C 1,3 km 2.600 ft 050° 050° 8 kt METAR NTAA 230030Z AUTO 05008KT 010V080 9999 1300 R04/1300D +RA SCT018 BKN026 BKN052 27/25 Q1009 BECMG NSW
14:00
V
28 °C 10 km+ 5.600 ft 040° 040° 9 kt METAR NTAA 230000Z AUTO 04009KT 010V070 9999 -RA FEW017 BKN056 BKN074 28/24 Q1009 NOSIG
13:30
V
29 °C 10 km+ 13.000 ft 050° 050° 10 kt METAR NTAA 222330Z AUTO 05010KT 9999 FEW060 SCT100 BKN130 29/23 Q1010 NOSIG
13:00
V
29 °C 10 km+ 6.400 ft 040° 040° 9 kt METAR NTAA 222300Z AUTO 04009KT 9999 FEW054 BKN064 29/25 Q1010 TEMPO 36015G25KT 3000 SHRA SCT018TCU SCT040
12:30
V
29 °C 10 km+ 6.800 ft 030° 030° 11 kt METAR NTAA 222230Z AUTO 03011KT 9999 FEW014 SCT025 OVC068 29/25 Q1010 TEMPO 36015G25KT 3000 SHRA SCT018TCU SCT040
12:00
V
30 °C 10 km+ 7.400 ft 040° 040° 9 kt METAR NTAA 222200Z AUTO 04009KT 9999 FEW016 BKN074 30/25 Q1011 NOSIG
11:30
V
30 °C 10 km+ - 040° 040° 9 kt METAR NTAA 222130Z AUTO 04009KT 9999 FEW018 SCT068 30/25 Q1011 NOSIG
11:00
V
30 °C 10 km+ 7.800 ft 050° 050° 10 kt METAR NTAA 222100Z AUTO 05010KT 9999 FEW018 BKN078 30/24 Q1011 NOSIG
10:30
V
29 °C 10 km+ 7.800 ft 050° 050° 10 kt METAR NTAA 222030Z AUTO 05010KT 020V090 9999 FEW020 SCT068 BKN078 29/24 Q1011 NOSIG
10:00
V
29 °C 10 km+ - 050° 050° 10 kt METAR NTAA 222000Z AUTO 05010KT 9999 FEW017 SCT070 29/24 Q1011 NOSIG
09:30
V
29 °C 10 km+ - 040° 040° 9 kt METAR NTAA 221930Z AUTO 04009KT 010V070 9999 SCT060 29/24 Q1011 NOSIG
09:00
V
29 °C 10 km+ - 040° 040° 8 kt METAR NTAA 221900Z AUTO 04008KT 9999 FEW064 29/24 Q1011 NOSIG
08:30
V
29 °C 10 km+ - 050° 050° 8 kt METAR NTAA 221830Z AUTO 05008KT 020V080 9999 FEW024 29/23 Q1011 NOSIG
08:00
V
28 °C 10 km+ - 040° 040° 6 kt METAR NTAA 221800Z AUTO 04006KT 360V070 9999 FEW024 28/23 Q1011 NOSIG
07:30
V
28 °C 10 km+ 6.200 ft 050° 050° 7 kt METAR NTAA 221730Z AUTO 05007KT 9999 FEW021 BKN062 BKN072 28/23 Q1011 NOSIG
07:00
M
27 °C 10 km+ 2.700 ft 060° 060° 6 kt METAR NTAA 221700Z AUTO 06006KT 9999 SCT022 BKN027 BKN060 27/23 Q1011 TEMPO 36015G25KT 3000 SHRA SCT018TCU SCT040
06:30
V
27 °C 10 km+ 6.200 ft 070° 070° 6 kt METAR NTAA 221630Z AUTO 07006KT 9999 FEW025 OVC062 27/22 Q1010 TEMPO 36015G25KT 3000 SHRA SCT018TCU SCT040
06:00
V
27 °C 10 km+ 6.200 ft 050° 050° 8 kt METAR NTAA 221600Z AUTO 05008KT 9999 FEW024 OVC062 27/21 Q1010 TEMPO 36015G25KT 3000 SHRA SCT018TCU SCT040
05:30
V
27 °C 10 km+ - 060° 060° 7 kt METAR NTAA 221530Z AUTO 06007KT 360V100 9999 FEW062 27/21 Q1009 TEMPO 36015G25KT 3000 SHRA SCT018TCU SCT040
05:00
V
27 °C 10 km+ - 050° 050° 6 kt METAR NTAA 221500Z AUTO 05006KT 020V090 9999 FEW029 SCT062 27/21 Q1009 TEMPO 36015G25KT 3000 SHRA SCT018TCU SCT040
04:30
V
27 °C 10 km+ 6.000 ft 050° 050° 4 kt METAR NTAA 221430Z AUTO 05004KT 010V080 9999 FEW024 OVC060 27/22 Q1009 TEMPO 36015G25KT 3000 SHRA SCT018TCU SCT040
04:00
V
27 °C 10 km+ 6.000 ft 030° 030° 4 kt METAR NTAA 221400Z AUTO 03004KT 360V070 9999 SCT026 OVC060 27/22 Q1009 TEMPO 36015G25KT 3000 SHRA SCT018TCU SCT040
03:30
V
27 °C 10 km+ 5.600 ft 040° 040° 7 kt METAR NTAA 221330Z AUTO 04007KT 020V080 9999 FEW024 OVC056 27/22 Q1009 TEMPO 36015G25KT 3000 SHRA SCT018TCU SCT040
03:00
V
27 °C 10 km+ 5.400 ft 060° 060° 7 kt METAR NTAA 221300Z AUTO 06007KT 020V110 9999 SCT024 BKN054 27/22 Q1009 NOSIG
02:30
M
27 °C 10 km+ 2.300 ft 060° 060° 8 kt METAR NTAA 221230Z AUTO 06008KT 030V090 9999 BKN023 BKN028 27/22 Q1009 NOSIG
02:00
V
27 °C 10 km+ - 070° 070° 11 - 22 kt METAR NTAA 221200Z AUTO 07011G22KT 040V110 9999 SCT023 27/22 Q1009 NOSIG
01:30
V
27 °C 10 km+ - 070° 070° 10 kt METAR NTAA 221130Z AUTO 07010KT 030V090 9999 SCT023 27/22 Q1010 NOSIG
01:00
M
27 °C 10 km+ 2.200 ft 070° 070° 10 kt METAR NTAA 221100Z AUTO 07010KT 030V090 9999 BKN022 27/21 Q1010 NOSIG
00:30
M
27 °C 10 km+ 2.600 ft 060° 060° 10 kt METAR NTAA 221030Z AUTO 06010KT 030V100 9999 BKN026 27/22 Q1010 NOSIG
00:00
M
27 °C 10 km+ 2.600 ft 050° 050° 10 kt METAR NTAA 221000Z AUTO 05010KT 030V090 9999 BKN026 27/22 Q1010 NOSIG

21 juni 2024

Tijd Code Weer Temp. Zicht Plafond Wind METAR/SPECI
23:30
V
27 °C 10 km+ - 060° 060° 10 kt METAR NTAA 220930Z AUTO 06010KT 040V100 9999 FEW024 SCT030 27/21 Q1010 NOSIG
23:00
M
27 °C 10 km+ 2.400 ft 060° 060° 10 kt METAR NTAA 220900Z AUTO 06010KT 9999 BKN024 BKN030 27/21 Q1011 NOSIG
22:30
M
27 °C 10 km+ 2.600 ft 070° 070° 13 kt METAR NTAA 220830Z AUTO 07013KT 9999 BKN026 BKN032 BKN038 27/21 Q1011 NOSIG
22:00
M
27 °C 10 km+ 2.600 ft 060° 060° 11 kt METAR NTAA 220800Z AUTO 06011KT 9999 BKN026 27/21 Q1011 NOSIG
21:30
V
26 °C 10 km+ - 060° 060° 10 kt METAR NTAA 220730Z AUTO 06010KT 9999 FEW024 26/21 Q1011 NOSIG
21:00
V
26 °C 10 km+ - 070° 070° 12 kt METAR NTAA 220700Z AUTO 07012KT 9999 FEW024 SCT040 26/21 Q1011 NOSIG
20:30
V
26 °C 10 km+ - 060° 060° 12 kt METAR NTAA 220630Z AUTO 06012KT 9999 FEW026 SCT031 26/21 Q1011 NOSIG
20:00
V
26 °C 10 km+ - 060° 060° 11 kt METAR NTAA 220600Z AUTO 06011KT 9999 FEW024 SCT033 26/21 Q1011 NOSIG
19:30
V
26 °C 10 km+ - 060° 060° 11 kt METAR NTAA 220530Z AUTO 06011KT 9999 FEW024 SCT029 26/21 Q1011 NOSIG
19:00
V
27 °C 10 km+ - 060° 060° 12 kt METAR NTAA 220500Z AUTO 06012KT 9999 FEW024 SCT029 27/21 Q1010 NOSIG
18:30
V
27 °C 10 km+ - 050° 050° 11 kt METAR NTAA 220430Z AUTO 05011KT 9999 FEW027 SCT032 27/21 Q1010 NOSIG
18:00
V
27 °C 10 km+ - 040° 040° 11 kt METAR NTAA 220400Z 04011KT 9999 FEW026 27/22 Q1010 NOSIG
17:30
V
27 °C 10 km+ - 040° 040° 10 kt METAR NTAA 220330Z 04010KT 9999 FEW026 27/22 Q1009 NOSIG
17:00
V
27 °C 10 km+ - 040° 040° 9 kt METAR NTAA 220300Z 04009KT 9999 FEW026 27/21 Q1009 NOSIG
16:30
V
28 °C 10 km+ - 040° 040° 10 kt METAR NTAA 220230Z 04010KT 9999 FEW026 28/21 Q1009 NOSIG
16:00
V
28 °C 10 km+ - 050° 050° 9 kt METAR NTAA 220200Z 05009KT 9999 FEW026 28/21 Q1009 NOSIG
15:30
V
28 °C 10 km+ - 040° 040° 10 kt METAR NTAA 220130Z 04010KT 9999 SCT026 28/21 Q1009 NOSIG
15:00
V
28 °C 10 km+ - 040° 040° 11 kt METAR NTAA 220100Z 04011KT 9999 SCT026 28/21 Q1009 NOSIG
14:30
V
28 °C 10 km+ - 040° 040° 11 kt METAR NTAA 220030Z 04011KT 9999 SCT028 28/21 Q1009 NOSIG
14:00
V
29 °C 10 km+ - 040° 040° 12 kt METAR NTAA 220000Z 04012KT 010V080 9999 SCT028 29/21 Q1009 NOSIG
13:30
V
28 °C 10 km+ - 040° 040° 13 kt METAR NTAA 212330Z 04013KT 9999 SCT028 28/21 Q1009 NOSIG
13:00
V
29 °C 10 km+ - 050° 050° 15 kt METAR NTAA 212300Z 05015KT 9999 FEW028 29/21 Q1009 NOSIG
12:30
V
28 °C 10 km+ - 050° 050° 15 kt METAR NTAA 212230Z 05015KT 9999 FEW030 28/21 Q1010 NOSIG
12:00
V
29 °C 10 km+ - 050° 050° 13 kt METAR NTAA 212200Z 05013KT 9999 FEW028 29/20 Q1010 NOSIG
11:30
V
29 °C 10 km+ - 040° 040° 13 kt METAR NTAA 212130Z 04013KT 9999 FEW028 29/20 Q1011 NOSIG
11:00
V
28 °C 10 km+ - 050° 050° 14 kt METAR NTAA 212100Z 05014KT 9999 FEW028 28/20 Q1011 NOSIG
10:30
V
28 °C 10 km+ - 050° 050° 16 kt METAR NTAA 212030Z 05016KT 9999 FEW028 28/20 Q1011 NOSIG
10:00
V
28 °C 10 km+ - 050° 050° 13 kt METAR NTAA 212000Z 05013KT 9999 FEW028 28/19 Q1012 NOSIG
09:30
V
28 °C 10 km+ - 050° 050° 13 kt METAR NTAA 211930Z 05013KT 9999 FEW030 28/20 Q1012 NOSIG
09:00
V
27 °C 10 km+ - 050° 050° 13 kt METAR NTAA 211900Z 05013KT 9999 FEW030 27/19 Q1012 NOSIG
08:30
V
27 °C 10 km+ - 050° 050° 11 kt METAR NTAA 211830Z 05011KT 9999 FEW028 27/20 Q1012 NOSIG
08:00
V
26 °C 10 km+ - 060° 060° 10 kt METAR NTAA 211800Z 06010KT 9999 FEW028 SCT046 26/19 Q1012 NOSIG
07:30
V
25 °C 10 km+ 4.600 ft 060° 060° 10 kt METAR NTAA 211730Z 06010KT 9999 FEW026 BKN046 25/19 Q1012 NOSIG
07:00
V
25 °C 10 km+ 4.600 ft 060° 060° 8 kt METAR NTAA 211700Z 06008KT 9999 FEW026 BKN046 25/19 Q1011 NOSIG
06:30
V
24 °C 10 km+ - 060° 060° 7 kt METAR NTAA 211630Z 06007KT 9999 FEW026 24/18 Q1011 NOSIG
06:00
V
24 °C 10 km+ - 060° 060° 5 kt METAR NTAA 211600Z 06005KT 9999 FEW026 24/18 Q1011 NOSIG
05:30
V
24 °C 10 km+ - 060° 060° 5 kt METAR NTAA 211530Z 06005KT 9999 FEW026 24/17 Q1011 NOSIG
05:00
V
23 °C 10 km+ - 060° 060° 4 kt METAR NTAA 211500Z 06004KT 9999 FEW026 23/17 Q1011 NOSIG
04:30
V
24 °C 10 km+ - 060° 060° 5 kt METAR NTAA 211430Z 06005KT 030V090 9999 FEW030 24/17 Q1010 NOSIG
04:00
V
24 °C 10 km+ - 060° 060° 5 kt METAR NTAA 211400Z 06005KT 9999 FEW030 24/17 Q1010 NOSIG
03:30
V
24 °C 10 km+ - 060° 060° 5 kt METAR NTAA 211330Z 06005KT 9999 FEW033 24/18 Q1010 NOSIG
03:00
V
24 °C 10 km+ - 060° 060° 6 kt METAR NTAA 211300Z 06006KT 9999 FEW033 24/18 Q1010 NOSIG
02:30
V
24 °C 10 km+ - 060° 060° 6 kt METAR NTAA 211230Z 06006KT 9999 FEW026 24/18 Q1010 NOSIG
02:00
V
24 °C 10 km+ - 060° 060° 6 kt METAR NTAA 211200Z 06006KT 9999 FEW026 24/17 Q1011 NOSIG
01:30
V
24 °C 10 km+ - 070° 070° 7 kt METAR NTAA 211130Z 07007KT 9999 FEW026 24/17 Q1011 NOSIG
01:00
V
24 °C 10 km+ - 060° 060° 6 kt METAR NTAA 211100Z 06006KT 9999 FEW026 SCT046 24/18 Q1011 NOSIG
00:30
V
23 °C 10 km+ - 060° 060° 6 kt METAR NTAA 211030Z AUTO 06006KT 9999 FEW050 23/17 Q1012 TEMPO 36015G25KT 3000 SHRA SCT018TCU SCT040
00:00
V
23 °C 10 km+ - 070° 070° 3 kt METAR NTAA 211000Z AUTO 07003KT 9999 FEW047 23/17 Q1012 TEMPO 36015G25KT 3000 SHRA SCT018TCU SCT040

20 juni 2024

Tijd Code Weer Temp. Zicht Plafond Wind METAR/SPECI
23:30
V
22 °C 10 km+ - 080° 080° 3 kt METAR NTAA 210930Z AUTO 08003KT CAVOK 22/17 Q1012 TEMPO 36015G25KT 3000 SHRA SCT018TCU SCT040
23:00
V
22 °C 10 km+ - 070° 070° 2 kt METAR NTAA 210900Z AUTO 07002KT CAVOK 22/16 Q1012 TEMPO 36015G25KT 3000 SHRA SCT018TCU SCT040
22:30
V
22 °C 10 km+ - 100° 100° 3 kt METAR NTAA 210830Z AUTO 10003KT 070V130 CAVOK 22/17 Q1012 TEMPO 36015G25KT 3000 SHRA SCT018TCU SCT040
22:00
V
22 °C 10 km+ - 100° 100° 4 kt METAR NTAA 210800Z 10004KT CAVOK 22/17 Q1012 NOSIG
21:30
V
22 °C 10 km+ - 100° 100° 4 kt METAR NTAA 210730Z 10004KT CAVOK 22/17 Q1012 NOSIG
21:00
V
22 °C 10 km+ - 090° 090° 4 kt METAR NTAA 210700Z 09004KT CAVOK 22/17 Q1012 NOSIG
20:34
V
22 °C 10 km+ - 090° 090° 4 kt METAR NTAA 210634Z 09004KT CAVOK 22/17 Q1012 NOSIG
Wijziging doorgeven